Ely Airport Yelland Field
KELY : now visible

Airfield :











YOU CAN JOIN US ON...

 
LOGIN :

Register | Disclaimer

   EN    FR    IT 

 









Legend :    VFR   Marginal VFR   IFR   Intensive IFR   Very Intensive IFR
Visi :
Ceiling :
>= 8 km
>= 3000ft
5 to 8 km
1000 to 3000 ft
1500m to 5 km
500 to 1000 ft
800 to 1500m
200 to 500 ft
< 800m
< 200 ft
Symbols :   Thunderstorms  Fog  Heavy snow  Heavy precipitations  Wind > 20 kt






- Airport Elevation : 6259 ft


KELY - Ely Yelland Field

CURRENT METAR :
  • 071953Z AUTO 17018G28KT 10SM FEW031 BKN049 BKN075 09/01 A3011 RMK AO2 PK WND 17028/1948 WSHFT 1905 RAE03B26E41 SLP165 P0000 T00940006

EXPIRED METARs :
  • 071925Z AUTO 22009KT 10SM SCT032 OVC045 08/01 A3012 RMK AO2 WSHFT 1905 RAE03 P0000 T00780011
  • 071853Z AUTO 14012G22KT 10SM -RA FEW043 BKN075 OVC090 07/02 A3012 RMK AO2 RAB52 SLP175 P0000 T00670017

TAF KELY
Valid from the 07 at 18:00 until the 08 at 18:00 UTC


071737Z 0718/0818 16010G20KT P6SM VCSH SCT030 BKN050
FM072100 19011KT P6SM -RA SCT020 BKN040
FM080200 18008KT P6SM SCT050 BKN120 OVC200
FM081700 07010G20KT P6SM FEW070 OVC200



MET'MAP, your aeronautical weather chart ! - Copyright ORBIFLY December 2007 - Disclaimer

ORBIFLY MET'MAP TEAM :

Programming & Development : Alexandra Zaïnal
Concept & original design : Baudouin d'Aumeries
Assistance for programming : Marc-Olivier Méhu
Technical & hardware support : Manuel Goepfert

Contact : metmap@orbifly.com




SOURCES & CREDITS :

   NOAA       Earth
Advisory